Airfield :
LOGIN :

Register | Disclaimer

   EN    FR    IT 

 










Legend :    VFR   Marginal VFR   IFR   Intensive IFR   Very Intensive IFR
Visi :
Ceiling :
>= 8 km
>= 3000ft
5 to 8 km
1000 to 3000 ft
1500m to 5 km
500 to 1000 ft
800 to 1500m
200 to 500 ft
< 800m
< 200 ft
Symbols :   Thunderstorms  Fog  Heavy snow  Heavy precipitations  Wind > 20 kt
SIGMETs :     Misc.  Thunderstorms  Icing  Turbulence  Mountain Waves  Volcanic Ashes







- Airport Elevation : 1234 ft
- IATA code : LUX


ELLX - Luxembourg Findel

CURRENT METAR :
  • 172150Z 18006KT 2000 RA SCT000 BKN001 16/16 Q1011 NOSIG

EXPIRED METARs :
  • 172120Z 17006KT 150V210 2000 RA SCT000 BKN001 16/16 Q1011 NOSIG
  • 172050Z 17006KT 150V210 2000 RA SCT001 BKN002 16/16 Q1011 NOSIG
  • 172020Z 17005KT 130V210 2000 -RA BR SCT000 BKN001 16/16 Q1011 RE/ NOSIG
  • 171950Z 17005KT 140V210 3000 -RA SCT001 BKN003 16/16 Q1011 RERA NOSIG

TAF TAF ELLX
Valid from the 17 at 18:00 until the 19 at 00:00 UTC


171700Z 1718/1824 20010KT 9999 SCT006 BKN010
TEMPO 1718/1806 5500 -RA BR BKN006
PROB30
TEMPO 1802/1806 1200 BCFG OVC004
BECMG 1807/1809 24015G25KT
TEMPO 1810/1820 SHRA SCT015TCU
TEMPO 1811/1818 26020G35KT TSRA BKN012CB
ATIS : +352 4798 27300
Met : +352 4798 27010 / 27050
No reported NOTAMs for that airfield.



MET'MAP, your aeronautical weather chart ! - Copyright ORBIFLY December 2007 - Disclaimer

ORBIFLY MET'MAP TEAM :

Programming & Development : Alexandra Zaïnal
Concept & Development : Baudouin d'Aumeries
Co-Development & Prog : Marc-Olivier Méhu
Technical & hardware support : Manuel Goepfert

Contact : metmap@orbifly.com




SOURCES & CREDITS :

   NOAA